createdAt,value
2017-11-16T00:02:02.637Z,92.10
2017-11-16T00:04:30.871Z,92.10
2017-11-16T00:06:58.353Z,92.10
2017-11-16T00:09:25.823Z,92.10
2017-11-16T00:11:53.289Z,92.20
2017-11-16T00:14:20.788Z,92.20
2017-11-16T00:16:48.327Z,92.20
2017-11-16T00:19:16.582Z,92.00
2017-11-16T00:21:44.143Z,92.00
2017-11-16T00:24:11.626Z,92.10
2017-11-16T00:26:39.154Z,92.20
2017-11-16T00:29:06.643Z,92.10
2017-11-16T00:31:34.883Z,92.40
2017-11-16T00:34:02.396Z,92.30
2017-11-16T00:36:29.873Z,92.50
2017-11-16T00:38:57.357Z,92.50
2017-11-16T00:41:24.839Z,92.50
2017-11-16T00:43:53.084Z,92.60
2017-11-16T00:46:20.562Z,92.60
2017-11-16T00:48:48.808Z,92.40
2017-11-16T00:51:16.280Z,92.30
2017-11-16T00:53:43.761Z,92.50
2017-11-16T00:56:11.995Z,92.40
2017-11-16T00:58:39.571Z,92.40
2017-11-16T01:01:07.038Z,92.40
2017-11-16T01:03:35.274Z,92.50
2017-11-16T01:06:02.779Z,92.50
2017-11-16T01:08:31.011Z,92.50
2017-11-16T01:10:58.495Z,92.40
2017-11-16T01:13:26.762Z,92.50
2017-11-16T01:15:54.241Z,92.50
2017-11-16T01:18:21.782Z,92.40
2017-11-16T01:20:49.263Z,92.40
2017-11-16T01:23:17.527Z,92.40
2017-11-16T01:25:45.797Z,92.30
2017-11-16T01:28:13.270Z,92.20
2017-11-16T01:30:41.516Z,92.40
2017-11-16T01:33:08.991Z,92.40
2017-11-16T01:35:37.230Z,92.70
2017-11-16T01:38:04.699Z,92.70
2017-11-16T01:40:32.225Z,92.60
2017-11-16T01:42:59.702Z,92.50
2017-11-16T01:45:27.187Z,92.30
2017-11-16T01:47:54.747Z,92.50
2017-11-16T01:50:22.216Z,92.60
2017-11-16T01:52:50.463Z,92.50
2017-11-16T01:55:18.040Z,92.50
2017-11-16T01:57:46.317Z,92.80
2017-11-16T02:00:14.553Z,92.50
2017-11-16T02:02:42.045Z,92.40
2017-11-16T02:05:09.516Z,92.30
2017-11-16T02:07:37.758Z,92.20
2017-11-16T02:10:05.222Z,92.10
2017-11-16T02:12:32.791Z,92.20
2017-11-16T02:15:00.267Z,92.10
2017-11-16T02:17:28.496Z,92.00
2017-11-16T02:19:55.972Z,91.90
2017-11-16T02:22:23.443Z,92.10
2017-11-16T02:24:51.762Z,92.10
2017-11-16T02:27:19.322Z,92.10
2017-11-16T02:29:46.833Z,92.00
2017-11-16T02:32:14.314Z,92.00
2017-11-16T02:34:41.810Z,91.90
2017-11-16T02:37:09.282Z,91.70
2017-11-16T02:39:36.758Z,91.90
2017-11-16T02:42:04.313Z,91.90
2017-11-16T02:44:31.798Z,91.90
2017-11-16T02:47:00.033Z,92.10
2017-11-16T02:49:27.606Z,92.00
2017-11-16T02:51:55.085Z,92.10
2017-11-16T02:54:23.610Z,92.10
2017-11-16T02:56:51.095Z,92.10
2017-11-16T02:59:18.562Z,92.00
2017-11-16T03:01:46.829Z,91.60
2017-11-16T03:04:14.306Z,91.90
2017-11-16T03:06:42.567Z,91.80
2017-11-16T03:09:10.043Z,91.80
2017-11-16T03:11:38.282Z,91.80
2017-11-16T03:14:05.763Z,91.80
2017-11-16T03:16:33.997Z,91.90
2017-11-16T03:19:01.494Z,91.90
2017-11-16T03:21:29.746Z,91.80
2017-11-16T03:23:57.213Z,91.80
2017-11-16T03:26:24.686Z,91.80
2017-11-16T03:28:52.942Z,91.90
2017-11-16T03:31:20.424Z,91.80
2017-11-16T03:33:48.681Z,91.90
2017-11-16T03:36:16.245Z,91.80
2017-11-16T03:38:44.497Z,91.70
2017-11-16T03:41:11.982Z,91.70
2017-11-16T03:43:40.226Z,91.50
2017-11-16T03:46:07.711Z,91.50
2017-11-16T03:48:35.961Z,91.40
2017-11-16T03:51:03.466Z,91.40
2017-11-16T03:53:30.961Z,91.40
2017-11-16T03:55:58.434Z,91.50
2017-11-16T03:58:25.924Z,91.40
2017-11-16T04:00:54.172Z,91.50
2017-11-16T04:03:21.651Z,91.40
2017-11-16T04:05:49.899Z,91.40
2017-11-16T04:08:17.492Z,91.40
2017-11-16T04:10:45.726Z,91.40
2017-11-16T04:13:13.209Z,91.30
2017-11-16T04:15:41.491Z,91.30
2017-11-16T04:18:09.763Z,91.40
2017-11-16T04:20:38.033Z,91.60
2017-11-16T04:23:05.511Z,91.60
2017-11-16T04:25:33.773Z,91.80
2017-11-16T04:28:02.157Z,91.90
2017-11-16T04:30:30.424Z,91.90
2017-11-16T04:32:57.898Z,91.90
2017-11-16T04:35:26.140Z,91.90
2017-11-16T04:37:53.645Z,91.90
2017-11-16T04:40:21.116Z,91.90
2017-11-16T04:42:48.618Z,91.80
2017-11-16T04:45:16.101Z,91.80
2017-11-16T04:47:44.333Z,92.00
2017-11-16T04:50:11.825Z,92.00
2017-11-16T04:52:40.065Z,92.10
2017-11-16T04:55:07.642Z,92.10
2017-11-16T04:57:35.209Z,92.10
2017-11-16T05:00:02.684Z,92.10
2017-11-16T05:02:30.928Z,91.90
2017-11-16T05:04:58.403Z,91.90
2017-11-16T05:07:26.650Z,91.80
2017-11-16T05:09:54.161Z,91.80
2017-11-16T05:12:21.642Z,91.90
2017-11-16T05:14:49.156Z,92.00
2017-11-16T05:17:17.402Z,92.10
2017-11-16T05:19:44.874Z,92.00
2017-11-16T05:22:12.346Z,92.00
2017-11-16T05:24:40.608Z,92.00
2017-11-16T05:27:08.087Z,91.90
2017-11-16T05:29:36.331Z,92.00
2017-11-16T05:32:03.805Z,92.00
2017-11-16T05:34:32.042Z,92.00
2017-11-16T05:36:59.630Z,92.00
2017-11-16T05:39:27.104Z,92.10
2017-11-16T05:41:55.341Z,92.20
2017-11-16T05:44:22.814Z,92.10
2017-11-16T05:46:50.306Z,92.10
2017-11-16T05:49:17.823Z,92.20
2017-11-16T05:51:45.299Z,92.20
2017-11-16T05:54:13.562Z,92.50
2017-11-16T05:56:41.031Z,92.10
2017-11-16T05:59:09.274Z,92.40
2017-11-16T06:01:36.750Z,92.10
2017-11-16T06:04:04.226Z,92.00
2017-11-16T06:06:32.460Z,92.20
2017-11-16T06:09:00.039Z,92.20
2017-11-16T06:11:27.501Z,92.30
2017-11-16T06:13:54.970Z,92.30
2017-11-16T06:16:23.327Z,92.40
2017-11-16T06:18:50.787Z,92.30
2017-11-16T06:21:18.365Z,92.40
2017-11-16T06:23:46.605Z,92.30
2017-11-16T06:26:14.190Z,92.30
2017-11-16T06:28:41.682Z,92.10
2017-11-16T06:31:09.170Z,92.30
2017-11-16T06:33:36.643Z,92.20
2017-11-16T06:36:04.211Z,92.10
2017-11-16T06:38:31.692Z,92.50
2017-11-16T06:40:59.926Z,92.00
2017-11-16T06:43:27.405Z,92.00
2017-11-16T06:45:55.670Z,91.90
2017-11-16T06:48:23.144Z,91.90
2017-11-16T06:50:51.399Z,92.20
2017-11-16T06:53:18.857Z,92.00
2017-11-16T06:55:46.432Z,92.20
2017-11-16T06:58:13.908Z,92.10
2017-11-16T07:00:42.146Z,92.10
2017-11-16T07:03:09.610Z,92.10
2017-11-16T07:05:37.101Z,92.10
2017-11-16T07:08:05.330Z,91.90
2017-11-16T07:10:32.918Z,91.90
2017-11-16T07:13:01.165Z,92.20
2017-11-16T07:15:28.649Z,92.10
2017-11-16T07:17:56.135Z,92.10
2017-11-16T07:20:23.606Z,91.90
2017-11-16T07:22:51.074Z,91.90
2017-11-16T07:25:18.549Z,91.80
2017-11-16T07:27:46.076Z,91.80
2017-11-16T07:30:13.586Z,91.90
2017-11-16T07:32:41.148Z,92.30
2017-11-16T07:35:09.444Z,92.50
2017-11-16T07:37:36.989Z,92.50
2017-11-16T07:40:05.218Z,92.40
2017-11-16T07:42:32.686Z,92.40
2017-11-16T07:45:00.162Z,92.40
2017-11-16T07:47:27.656Z,92.20
2017-11-16T07:49:55.122Z,92.10
2017-11-16T07:52:22.599Z,92.00
2017-11-16T07:54:50.169Z,92.00
2017-11-16T07:57:17.706Z,92.10
2017-11-16T07:59:45.234Z,92.00
2017-11-16T08:02:13.479Z,91.80
2017-11-16T08:04:41.051Z,91.80
2017-11-16T08:07:09.372Z,91.90
2017-11-16T08:09:36.883Z,91.90
2017-11-16T08:12:04.373Z,92.00
2017-11-16T08:14:31.851Z,92.10
2017-11-16T08:16:59.332Z,92.00
2017-11-16T08:19:26.797Z,92.10
2017-11-16T08:21:54.316Z,92.10
2017-11-16T08:24:21.783Z,92.10
2017-11-16T08:26:49.260Z,92.00
2017-11-16T08:29:16.847Z,92.00
2017-11-16T08:31:44.324Z,92.10
2017-11-16T08:34:12.568Z,92.00
2017-11-16T08:36:40.057Z,92.00
2017-11-16T08:39:07.549Z,91.70
2017-11-16T08:41:35.022Z,91.70
2017-11-16T08:44:02.530Z,92.90
2017-11-16T08:46:32.301Z,92.30
2017-11-16T08:48:59.827Z,92.80
2017-11-16T08:51:27.316Z,92.30
2017-11-16T08:53:54.802Z,92.50
2017-11-16T08:56:23.066Z,91.90
2017-11-16T08:58:50.628Z,91.80
2017-11-16T09:01:18.128Z,92.00
2017-11-16T09:06:19.638Z,91.90
2017-11-16T09:08:47.116Z,91.60
2017-11-16T09:11:15.393Z,91.40
2017-11-16T09:13:43.658Z,91.60
2017-11-16T09:16:11.212Z,91.60
2017-11-16T09:18:38.692Z,91.60
2017-11-16T09:21:06.943Z,91.50
2017-11-16T09:23:34.497Z,91.50
2017-11-16T09:26:01.986Z,91.50
2017-11-16T09:28:30.231Z,91.50
2017-11-16T09:30:57.720Z,91.40
2017-11-16T09:33:25.268Z,91.40
2017-11-16T09:35:52.743Z,91.40
2017-11-16T09:38:20.215Z,91.30
2017-11-16T09:40:47.685Z,91.10
2017-11-16T09:43:15.162Z,90.80
2017-11-16T09:45:42.730Z,90.60
2017-11-16T09:48:10.551Z,90.50
2017-11-16T09:50:38.024Z,90.20
2017-11-16T09:53:05.501Z,90.40
2017-11-16T09:55:33.124Z,90.40
2017-11-16T09:58:00.637Z,90.30
2017-11-16T10:00:28.881Z,90.60
2017-11-16T10:02:56.369Z,90.30
2017-11-16T10:05:24.645Z,90.50
2017-11-16T10:07:52.904Z,90.20
2017-11-16T10:10:20.472Z,90.20
2017-11-16T10:12:48.717Z,90.10
2017-11-16T10:15:16.216Z,89.50
2017-11-16T10:17:44.531Z,88.60
2017-11-16T10:20:12.048Z,88.50
2017-11-16T10:22:40.304Z,88.60
2017-11-16T10:25:07.878Z,88.60
2017-11-16T10:27:35.348Z,89.20
2017-11-16T10:30:03.599Z,89.40
2017-11-16T10:32:31.092Z,89.30
2017-11-16T10:34:58.572Z,89.10
2017-11-16T10:37:26.043Z,89.50
2017-11-16T10:39:53.573Z,89.80
2017-11-16T10:42:21.051Z,90.00
2017-11-16T10:44:48.580Z,89.80
2017-11-16T10:47:16.070Z,89.80
2017-11-16T10:49:43.561Z,89.20
2017-11-16T10:52:11.047Z,89.90
2017-11-16T10:54:38.612Z,89.60
2017-11-16T10:57:06.155Z,89.50
2017-11-16T10:59:34.399Z,89.60
2017-11-16T11:02:01.879Z,89.40
2017-11-16T11:04:29.348Z,89.40
2017-11-16T11:06:57.600Z,89.30
2017-11-16T11:09:25.068Z,89.20
2017-11-16T11:11:52.542Z,89.00
2017-11-16T11:14:20.083Z,88.30
2017-11-16T11:16:47.655Z,89.10
2017-11-16T11:19:15.944Z,90.00
2017-11-16T11:21:43.491Z,89.90
2017-11-16T11:24:11.743Z,89.30
2017-11-16T11:26:39.223Z,89.20
2017-11-16T11:29:07.498Z,88.60
2017-11-16T11:31:35.738Z,89.00
2017-11-16T11:34:03.224Z,89.00
2017-11-16T11:36:31.588Z,89.20
2017-11-16T11:38:59.057Z,88.30
2017-11-16T11:41:27.314Z,87.60
2017-11-16T11:43:54.875Z,87.40
2017-11-16T11:46:22.356Z,87.30
2017-11-16T11:48:50.590Z,87.30
2017-11-16T11:51:18.162Z,87.20
2017-11-16T11:53:45.659Z,88.20
2017-11-16T11:56:13.159Z,88.20
2017-11-16T11:58:40.760Z,88.10
2017-11-16T12:01:08.229Z,87.30
2017-11-16T12:03:35.725Z,87.60
2017-11-16T12:06:03.199Z,87.60
2017-11-16T12:08:30.781Z,87.40
2017-11-16T12:10:59.079Z,87.00
2017-11-16T12:13:26.559Z,86.90
2017-11-16T12:15:54.184Z,88.00
2017-11-16T12:18:22.432Z,86.80
2017-11-16T12:20:50.158Z,86.60
2017-11-16T12:23:17.661Z,86.60
2017-11-16T12:25:45.221Z,86.00
2017-11-16T12:28:12.776Z,86.20
2017-11-16T12:30:40.260Z,86.50
2017-11-16T12:33:07.801Z,86.70
2017-11-16T12:35:35.354Z,85.50
2017-11-16T12:38:02.831Z,85.50
2017-11-16T12:40:31.086Z,85.60
2017-11-16T12:43:00.133Z,84.40
2017-11-16T12:45:27.605Z,84.40
2017-11-16T12:47:55.090Z,85.60
2017-11-16T12:50:22.554Z,85.80
2017-11-16T12:52:50.120Z,85.60
2017-11-16T12:55:18.380Z,85.10
2017-11-16T12:57:45.946Z,85.70
2017-11-16T13:00:13.505Z,83.90
2017-11-16T13:02:41.798Z,84.50
2017-11-16T13:05:10.038Z,85.00
2017-11-16T13:07:37.615Z,84.80
2017-11-16T13:10:05.177Z,84.30
2017-11-16T13:12:32.683Z,84.70
2017-11-16T13:15:00.204Z,82.80
2017-11-16T13:17:27.800Z,82.80
2017-11-16T13:19:55.303Z,83.90
2017-11-16T13:22:22.775Z,83.10
2017-11-16T13:24:51.358Z,83.50
2017-11-16T13:27:19.599Z,83.10
2017-11-16T13:29:47.197Z,83.00
2017-11-16T13:32:15.617Z,83.40
2017-11-16T13:34:43.119Z,83.40
2017-11-16T13:37:10.599Z,83.10
2017-11-16T13:39:38.087Z,83.30
2017-11-16T13:42:05.563Z,82.50
2017-11-16T13:44:33.053Z,83.30
2017-11-16T13:47:01.295Z,84.30
2017-11-16T13:49:28.778Z,83.40
2017-11-16T13:51:56.387Z,83.80
2017-11-16T13:54:23.871Z,83.20
2017-11-16T13:56:51.339Z,83.50
2017-11-16T13:59:18.833Z,83.20
2017-11-16T14:01:46.297Z,82.80
2017-11-16T14:04:13.771Z,83.40
2017-11-16T14:06:41.266Z,83.90
2017-11-16T14:09:08.750Z,83.90
2017-11-16T14:11:36.999Z,83.80
2017-11-16T14:14:04.470Z,83.80
2017-11-16T14:16:32.081Z,84.10
2017-11-16T14:18:59.551Z,84.10
2017-11-16T14:21:27.025Z,84.20
2017-11-16T14:23:54.593Z,84.00
2017-11-16T14:26:22.074Z,84.30
2017-11-16T14:28:50.386Z,84.20
2017-11-16T14:31:17.870Z,84.10
2017-11-16T14:33:45.349Z,83.80
2017-11-16T14:36:12.822Z,83.60
2017-11-16T14:38:41.058Z,84.70
2017-11-16T14:41:08.590Z,84.70
2017-11-16T14:43:36.058Z,84.70
2017-11-16T14:46:03.528Z,84.30
2017-11-16T14:48:31.009Z,83.90
2017-11-16T14:50:58.578Z,83.80
2017-11-16T14:53:26.807Z,81.90
2017-11-16T14:55:54.297Z,81.70
2017-11-16T14:58:21.776Z,82.40
2017-11-16T15:00:50.015Z,82.80
2017-11-16T15:03:17.610Z,82.60
2017-11-16T15:05:45.865Z,83.10
2017-11-16T15:08:13.414Z,83.00
2017-11-16T15:10:40.979Z,83.20
2017-11-16T15:13:08.455Z,83.30
2017-11-16T15:15:36.682Z,82.90
2017-11-16T15:18:04.184Z,82.90
2017-11-16T15:20:32.453Z,84.50
2017-11-16T15:23:00.014Z,83.60
2017-11-16T15:25:27.496Z,83.90
2017-11-16T15:27:55.719Z,83.30
2017-11-16T15:30:23.189Z,83.10
2017-11-16T15:32:50.661Z,83.20
2017-11-16T15:35:18.919Z,82.50
2017-11-16T15:37:46.384Z,83.00
2017-11-16T15:40:13.862Z,83.40
2017-11-16T15:42:42.106Z,83.80
2017-11-16T15:45:09.593Z,83.80
2017-11-16T15:47:37.827Z,83.40
2017-11-16T15:50:05.358Z,83.30
2017-11-16T15:52:32.862Z,83.60
2017-11-16T15:55:00.337Z,84.00
2017-11-16T15:57:28.575Z,83.30
2017-11-16T15:59:56.207Z,83.10
2017-11-16T16:02:23.676Z,83.30
2017-11-16T16:04:51.139Z,82.90
2017-11-16T16:07:18.621Z,83.00
2017-11-16T16:09:46.098Z,83.10
2017-11-16T16:12:14.411Z,82.70
2017-11-16T16:14:41.874Z,82.50
2017-11-16T16:17:09.341Z,82.50
2017-11-16T16:19:37.291Z,82.00
2017-11-16T16:22:04.815Z,82.00
2017-11-16T16:24:33.039Z,82.00
2017-11-16T16:27:00.514Z,81.90
2017-11-16T16:29:27.989Z,82.50
2017-11-16T16:31:56.983Z,82.40
2017-11-16T16:34:24.448Z,82.40
2017-11-16T16:36:51.918Z,82.10
2017-11-16T16:39:20.275Z,82.50
2017-11-16T16:41:47.749Z,82.40
2017-11-16T16:44:16.055Z,82.60
2017-11-16T16:46:43.519Z,83.70
2017-11-16T16:49:11.004Z,82.70
2017-11-16T16:51:38.525Z,82.10
2017-11-16T16:54:06.016Z,82.30
2017-11-16T16:56:33.484Z,82.20
2017-11-16T16:59:00.976Z,82.20
2017-11-16T17:01:28.463Z,83.80
2017-11-16T17:03:55.925Z,84.20
2017-11-16T17:06:23.410Z,82.60
2017-11-16T17:08:50.974Z,82.40
2017-11-16T17:11:18.553Z,82.50
2017-11-16T17:13:46.063Z,82.60
2017-11-16T17:16:13.592Z,82.50
2017-11-16T17:18:41.110Z,82.30
2017-11-16T17:21:08.587Z,82.10
2017-11-16T17:23:36.840Z,82.00
2017-11-16T17:26:04.317Z,81.90
2017-11-16T17:28:32.576Z,81.40
2017-11-16T17:31:00.053Z,81.30
2017-11-16T17:33:28.906Z,81.90
2017-11-16T17:35:56.378Z,81.80
2017-11-16T17:38:23.852Z,82.10
2017-11-16T17:40:52.103Z,82.10
2017-11-16T17:43:19.621Z,81.90
2017-11-16T17:45:47.151Z,82.20
2017-11-16T17:48:14.683Z,82.40
2017-11-16T17:50:42.234Z,82.40
2017-11-16T17:53:10.463Z,83.60
2017-11-16T17:55:38.027Z,83.60
2017-11-16T17:58:05.529Z,83.70
2017-11-16T18:00:33.828Z,83.70
2017-11-16T18:03:02.096Z,84.00
2017-11-16T18:05:29.552Z,84.00
2017-11-16T18:07:57.018Z,84.40
2017-11-16T18:10:25.256Z,83.70
2017-11-16T18:12:52.764Z,83.60
2017-11-16T18:15:20.295Z,84.20
2017-11-16T18:17:47.855Z,84.30
2017-11-16T18:20:16.117Z,84.00
2017-11-16T18:22:43.675Z,83.80
2017-11-16T18:25:11.233Z,84.30
2017-11-16T18:27:38.702Z,84.50
2017-11-16T18:30:06.175Z,84.40
2017-11-16T18:32:34.431Z,84.30
2017-11-16T18:35:02.039Z,84.20
2017-11-16T18:37:29.548Z,84.40
2017-11-16T18:39:58.549Z,84.20
2017-11-16T18:42:26.919Z,84.30
2017-11-16T18:44:54.491Z,83.90
2017-11-16T18:47:22.726Z,84.00
2017-11-16T18:49:50.273Z,84.00
2017-11-16T18:52:17.812Z,84.30
2017-11-16T18:54:45.274Z,84.20
2017-11-16T18:57:12.791Z,84.50
2017-11-16T18:59:40.334Z,84.60
2017-11-16T19:02:07.839Z,84.70
2017-11-16T19:04:35.400Z,84.80
2017-11-16T19:07:02.991Z,85.00
2017-11-16T19:09:30.749Z,85.10
2017-11-16T19:11:58.233Z,85.00
2017-11-16T19:14:25.761Z,85.30
2017-11-16T19:16:53.355Z,85.80
2017-11-16T19:19:20.986Z,85.90
2017-11-16T19:21:48.474Z,85.60
2017-11-16T19:24:16.146Z,85.30
2017-11-16T19:26:44.412Z,85.90
2017-11-16T19:29:11.872Z,85.70
2017-11-16T19:31:40.105Z,85.90
2017-11-16T19:34:07.596Z,85.80
2017-11-16T19:36:35.163Z,86.00
2017-11-16T19:39:02.650Z,86.40
2017-11-16T19:41:30.109Z,86.30
2017-11-16T19:43:57.634Z,86.30
2017-11-16T19:46:25.102Z,86.80
2017-11-16T19:48:53.349Z,87.00
2017-11-16T19:51:20.823Z,86.90
2017-11-16T19:53:49.057Z,86.90
2017-11-16T19:56:16.542Z,86.90
2017-11-16T19:58:44.002Z,86.70
2017-11-16T20:01:11.518Z,86.60
2017-11-16T20:03:38.987Z,86.80
2017-11-16T20:06:06.569Z,86.80
2017-11-16T20:08:34.030Z,87.20
2017-11-16T20:11:01.494Z,86.90
2017-11-16T20:13:29.511Z,87.50
2017-11-16T20:15:57.028Z,87.80
2017-11-16T20:18:24.599Z,88.70
2017-11-16T20:20:52.848Z,88.30
2017-11-16T20:23:20.320Z,88.20
2017-11-16T20:25:48.663Z,87.20
2017-11-16T20:28:16.135Z,87.20
2017-11-16T20:30:43.603Z,87.40
2017-11-16T20:33:11.091Z,87.50
2017-11-16T20:35:38.550Z,88.10
2017-11-16T20:38:07.924Z,88.30
2017-11-16T20:40:39.059Z,88.10
2017-11-16T20:43:17.584Z,88.60
2017-11-16T20:45:45.985Z,89.00
2017-11-16T20:48:20.024Z,89.00
2017-11-16T20:50:53.322Z,88.80
2017-11-16T20:53:26.635Z,89.00
2017-11-16T20:55:54.223Z,89.30
2017-11-16T20:58:22.570Z,89.10
2017-11-16T21:00:50.147Z,89.00
2017-11-16T21:03:17.856Z,88.80
2017-11-16T21:05:45.483Z,88.90
2017-11-16T21:08:13.815Z,88.50
2017-11-16T21:10:41.428Z,88.50
2017-11-16T21:13:09.776Z,88.80
2017-11-16T21:15:37.379Z,88.70
2017-11-16T21:18:04.958Z,88.80
2017-11-16T21:20:32.552Z,88.90
2017-11-16T21:23:00.194Z,88.50
2017-11-16T21:25:27.780Z,88.00
2017-11-16T21:27:55.327Z,88.30
2017-11-16T21:30:23.007Z,89.30
2017-11-16T21:32:50.605Z,88.30
2017-11-16T21:35:18.212Z,88.50
2017-11-16T21:37:45.932Z,88.90
2017-11-16T21:40:13.496Z,88.70
2017-11-16T21:42:40.964Z,88.80
2017-11-16T21:45:08.429Z,88.80
2017-11-16T21:47:35.905Z,89.20
2017-11-16T21:50:04.203Z,88.90
2017-11-16T21:52:32.454Z,89.10
2017-11-16T21:55:00.020Z,89.00
2017-11-16T21:57:28.662Z,89.00
2017-11-16T21:59:56.175Z,88.80
2017-11-16T22:02:23.640Z,87.90
2017-11-16T22:04:51.867Z,88.00
2017-11-16T22:07:20.113Z,88.00
2017-11-16T22:09:47.583Z,87.80
2017-11-16T22:12:15.101Z,88.10
2017-11-16T22:14:42.645Z,87.90
2017-11-16T22:17:10.212Z,88.40
2017-11-16T22:19:37.696Z,88.90
2017-11-16T22:22:05.227Z,88.50
2017-11-16T22:24:32.692Z,88.60
2017-11-16T22:27:00.958Z,88.50
2017-11-16T22:29:28.565Z,88.30
2017-11-16T22:31:56.083Z,89.00
2017-11-16T22:34:24.320Z,88.20
2017-11-16T22:36:51.807Z,88.10
2017-11-16T22:39:19.268Z,88.40
2017-11-16T22:41:47.507Z,88.90
2017-11-16T22:44:14.978Z,88.90
2017-11-16T22:46:42.437Z,89.30
2017-11-16T22:49:09.898Z,89.40
2017-11-16T22:51:37.486Z,89.70
2017-11-16T22:54:05.800Z,89.40
2017-11-16T22:56:33.312Z,89.30
2017-11-16T22:59:01.567Z,90.00
2017-11-16T23:01:29.102Z,90.00
2017-11-16T23:03:56.584Z,89.30
2017-11-16T23:06:24.060Z,89.30
2017-11-16T23:08:52.302Z,88.90
2017-11-16T23:11:19.762Z,88.80
2017-11-16T23:13:47.249Z,88.80
2017-11-16T23:16:15.499Z,89.40
2017-11-16T23:18:43.067Z,90.00
2017-11-16T23:21:10.543Z,89.50
2017-11-16T23:23:38.086Z,89.20
2017-11-16T23:26:05.663Z,89.20
2017-11-16T23:28:33.901Z,89.80
2017-11-16T23:31:01.372Z,89.70
2017-11-16T23:33:29.263Z,89.60
2017-11-16T23:35:57.494Z,89.80
2017-11-16T23:38:24.954Z,89.60
2017-11-16T23:40:52.436Z,89.80
2017-11-16T23:43:20.706Z,90.20
2017-11-16T23:45:48.938Z,90.10
2017-11-16T23:48:16.407Z,90.10
2017-11-16T23:50:43.932Z,90.10
2017-11-16T23:53:12.133Z,90.60
2017-11-16T23:55:39.643Z,90.50
2017-11-16T23:58:07.955Z,90.70
